| time (UTC) | temp F | wind direction | speed knots | gust knots | rain 1hr in | rain 24hr in | rain mn in | humidity % | barometer mb |
| 20260505041545 | 42 | 222 | 2.6 | 4.3 | 0.02 | 0.08 | 0.08 | 84 | 365.1 |
| 20260505040802 | 42 | 246 | 0.9 | 3.5 | 0.02 | 0.08 | 0.08 | 84 | 365.1 |
| 20260505040303 | 42 | 250 | 0.9 | 3.5 | 0.02 | 0.08 | 0.08 | 84 | 365.1 |
| 20260505035803 | 43 | 243 | 0.9 | 3.5 | 0.02 | 0.06 | 0.08 | 84 | 365.1 |
| 20260505035304 | 43 | 249 | 0.0 | 3.5 | 0.02 | 0.06 | 0.08 | 84 | 365.1 |
| 20260505034802 | 43 | 253 | 0.9 | 5.2 | 0.02 | 0.06 | 0.08 | 84 | 365.0 |
| 20260505034303 | 43 | 229 | 1.7 | 7.8 | 0.03 | 0.06 | 0.08 | 84 | 365.0 |
| 20260505033802 | 43 | 276 | 1.7 | 7.8 | 0.03 | 0.06 | 0.08 | 84 | 365.1 |
| 20260505033302 | 43 | 254 | 3.5 | 6.1 | 0.03 | 0.06 | 0.08 | 84 | 365.1 |
| 20260505032759 | 43 | 252 | 3.5 | 6.1 | 0.03 | 0.06 | 0.08 | 84 | 365.0 |
| 20260505032258 | 43 | 260 | 2.6 | 8.7 | 0.02 | 0.06 | 0.07 | 83 | 364.9 |
| 20260505031825 | 44 | 228 | 4.3 | 7.8 | 0.01 | 0.06 | 0.06 | 81 | 364.7 |
| 20260505031815 | 44 | 250 | 3.5 | 8.7 | 0.02 | 0.06 | 0.07 | 82 | 364.7 |
| 20260505030751 | 44 | 252 | 5.2 | 8.7 | 0.01 | 0.06 | 0.06 | 80 | 364.7 |
| 20260505030249 | 44 | 250 | 4.3 | 8.7 | 0.01 | 0.06 | 0.06 | 79 | 364.7 |
| 20260505025749 | 44 | 239 | 4.3 | 7.8 | 0.01 | 0.05 | 0.06 | 78 | 364.5 |
| 20260505025251 | 44 | 256 | 3.5 | 7.8 | 0.01 | 0.05 | 0.06 | 77 | 364.4 |
| 20260505024749 | 45 | 240 | 0.9 | 4.3 | 0.00 | 0.05 | 0.05 | 76 | 364.4 |
| 20260505024533 | 45 | 277 | 1.7 | 4.3 | 0.00 | 0.05 | 0.05 | 75 | 364.3 |
| 20260505023749 | 45 | 247 | 0.9 | 2.6 | 0.00 | 0.05 | 0.05 | 74 | 364.2 |
| 20260505023539 | 45 | 243 | 1.7 | 2.6 | 0.00 | 0.05 | 0.05 | 74 | 364.2 |
| 20260505022749 | 45 | 284 | 0.0 | 1.7 | 0.00 | 0.05 | 0.05 | 74 | 364.3 |
| 20260505022249 | 45 | 267 | 0.0 | 1.7 | 0.00 | 0.05 | 0.05 | 75 | 364.0 |
| 20260505021748 | 45 | 291 | 0.9 | 1.7 | 0.00 | 0.05 | 0.05 | 75 | 364.0 |
| 20260505021250 | 45 | 3 | 0.0 | 1.7 | 0.00 | 0.05 | 0.05 | 75 | 363.9 |
| 20260505020750 | 45 | 3 | 0.0 | 2.6 | 0.00 | 0.05 | 0.05 | 74 | 363.9 |
| 20260505020248 | 45 | 6 | 0.9 | 3.5 | 0.00 | 0.05 | 0.05 | 74 | 364.3 |
| 20260505015749 | 45 | 346 | 2.6 | 6.1 | 0.00 | 0.05 | 0.05 | 75 | 364.3 |
| 20260505015248 | 45 | 4 | 2.6 | 8.7 | 0.00 | 0.05 | 0.05 | 73 | 364.2 |
| 20260505014749 | 45 | 0 | 5.2 | 8.7 | 0.00 | 0.05 | 0.05 | 73 | 364.0 |
| 20260505014536 | 46 | 28 | 6.1 | 9.6 | 0.00 | 0.05 | 0.05 | 71 | 363.9 |
| 20260505013749 | 46 | 9 | 3.5 | 9.6 | 0.01 | 0.05 | 0.05 | 70 | 363.8 |
| 20260505013249 | 46 | 349 | 5.2 | 10.4 | 0.01 | 0.05 | 0.05 | 70 | 363.7 |
| 20260505012747 | 46 | 39 | 5.2 | 10.4 | 0.01 | 0.05 | 0.05 | 69 | 363.7 |
| 20260505012247 | 46 | 356 | 4.3 | 11.3 | 0.01 | 0.05 | 0.05 | 71 | 363.9 |
| 20260505011748 | 46 | 356 | 6.1 | 12.2 | 0.01 | 0.05 | 0.05 | 71 | 363.8 |
| 20260505011248 | 47 | 0 | 6.1 | 13.0 | 0.01 | 0.05 | 0.05 | 70 | 363.9 |
| 20260505010747 | 47 | 350 | 9.6 | 13.0 | 0.01 | 0.05 | 0.05 | 68 | 364.0 |
| 20260505010247 | 47 | 350 | 8.7 | 12.2 | 0.01 | 0.05 | 0.05 | 67 | 363.9 |
| 20260505005746 | 47 | 339 | 7.8 | 15.6 | 0.01 | 0.04 | 0.05 | 67 | 363.9 |
| 20260505005245 | 47 | 6 | 7.8 | 15.6 | 0.01 | 0.04 | 0.05 | 68 | 363.8 |
| 20260505004745 | 49 | 21 | 7.8 | 14.8 | 0.01 | 0.04 | 0.05 | 66 | 363.7 |
| 20260505004246 | 50 | 343 | 9.6 | 13.9 | 0.01 | 0.04 | 0.05 | 61 | 363.9 |
| 20260505003746 | 51 | 350 | 6.1 | 9.6 | 0.00 | 0.04 | 0.04 | 60 | 363.8 |
| 20260505003245 | 51 | 10 | 0.0 | 4.3 | 0.00 | 0.04 | 0.04 | 59 | 363.6 |
| 20260505002746 | 51 | 18 | 0.9 | 4.3 | 0.00 | 0.04 | 0.04 | 57 | 363.5 |
| 20260505002244 | 52 | 34 | 0.9 | 3.5 | 0.00 | 0.04 | 0.04 | 58 | 363.5 |
| 20260505001745 | 52 | 30 | 0.0 | 2.6 | 0.00 | 0.04 | 0.04 | 61 | 363.5 |
| 20260505001246 | 51 | 21 | 0.9 | 3.5 | 0.00 | 0.04 | 0.04 | 60 | 363.4 |
| 20260505000745 | 51 | 346 | 1.7 | 3.5 | 0.00 | 0.04 | 0.04 | 63 | 363.4 |
| 20260505000535 | 51 | 345 | 1.7 | 3.5 | 0.01 | 0.04 | 0.04 | 64 | 363.4 |
| 20260504235744 | 51 | 51 | 0.0 | 0.9 | 0.01 | 0.03 | 0.04 | 65 | 363.4 |
| 20260504235530 | 51 | 56 | 0.0 | 0.0 | 0.01 | 0.03 | 0.04 | 62 | 363.4 |
| 20260504234745 | 51 | 56 | 0.0 | 0.9 | 0.01 | 0.03 | 0.04 | 63 | 363.1 |
| 20260504234245 | 50 | 56 | 0.0 | 1.7 | 0.01 | 0.03 | 0.04 | 62 | 363.0 |
| 20260504234033 | 50 | 56 | 0.0 | 4.3 | 0.01 | 0.03 | 0.04 | 62 | 363.0 |
| 20260504233529 | 50 | 23 | 0.0 | 6.1 | 0.01 | 0.03 | 0.04 | 63 | 363.1 |
| 20260504232744 | 50 | 46 | 2.6 | 6.1 | 0.01 | 0.03 | 0.04 | 63 | 363.1 |
| 20260504232244 | 50 | 11 | 1.7 | 3.5 | 0.01 | 0.03 | 0.04 | 60 | 363.4 |
| 20260504232032 | 49 | 11 | 0.0 | 2.6 | 0.01 | 0.03 | 0.04 | 61 | 363.5 |
| 20260504231243 | 50 | 283 | 0.0 | 11.3 | 0.01 | 0.03 | 0.04 | 61 | 363.5 |
| 20260504230745 | 50 | 347 | 5.2 | 14.8 | 0.01 | 0.03 | 0.04 | 56 | 363.4 |
| 20260504230244 | 52 | 340 | 10.4 | 14.8 | 0.00 | 0.03 | 0.03 | 53 | 363.2 |
| 20260504225746 | 54 | 328 | 8.7 | 13.9 | 0.00 | 0.03 | 0.03 | 48 | 363.1 |
| 20260504225535 | 54 | 3 | 5.2 | 13.0 | 0.00 | 0.03 | 0.03 | 44 | 362.9 |
| 20260504224739 | 54 | 338 | 2.6 | 6.1 | 0.00 | 0.03 | 0.03 | 45 | 362.8 |
| 20260504224234 | 54 | 350 | 0.9 | 2.6 | 0.00 | 0.03 | 0.03 | 47 | 362.7 |
| 20260504223734 | 55 | 27 | 0.0 | 3.5 | 0.00 | 0.03 | 0.03 | 43 | 362.5 |
| 20260504223233 | 55 | 14 | 0.0 | 6.1 | 0.00 | 0.03 | 0.03 | 44 | 362.2 |
| 20260504222733 | 55 | 26 | 2.6 | 10.4 | 0.00 | 0.03 | 0.03 | 43 | 362.2 |
| 20260504222232 | 55 | 31 | 6.1 | 10.4 | 0.01 | 0.03 | 0.03 | 45 | 362.2 |
| 20260504222019 | 55 | 354 | 1.7 | 3.5 | 0.01 | 0.03 | 0.03 | 45 | 362.1 |
| 20260504221226 | 55 | 27 | 0.0 | 3.5 | 0.01 | 0.03 | 0.03 | 46 | 362.0 |
| 20260504220724 | 55 | 7 | 1.7 | 3.5 | 0.01 | 0.03 | 0.03 | 49 | 361.7 |
| 20260504220216 | 55 | 31 | 0.0 | 0.9 | 0.02 | 0.03 | 0.03 | 54 | 361.5 |
| 20260504215714 | 55 | 61 | 0.0 | 5.2 | 0.02 | 0.01 | 0.03 | 54 | 361.4 |
| 20260504215214 | 54 | 106 | 0.9 | 5.2 | 0.02 | 0.01 | 0.03 | 54 | 361.5 |
| 20260504214710 | 54 | 147 | 0.0 | 3.5 | 0.02 | 0.01 | 0.03 | 57 | 361.7 |
| 20260504214209 | 52 | 140 | 0.9 | 4.3 | 0.03 | 0.01 | 0.03 | 59 | 362.0 |
| 20260504213954 | 51 | 64 | 1.7 | 4.3 | 0.03 | 0.01 | 0.03 | 58 | 362.2 |
| 20260504213203 | 51 | 50 | 0.0 | 8.7 | 0.03 | 0.01 | 0.03 | 58 | 362.5 |
| 20260504212703 | 51 | 82 | 0.0 | 10.4 | 0.03 | 0.01 | 0.03 | 57 | 363.0 |
| 20260504212256 | 52 | 353 | 0.9 | 22.6 | 0.02 | 0.01 | 0.02 | 49 | 363.6 |
| 20260504212239 | 51 | 40 | 5.2 | 10.4 | 0.02 | 0.01 | 0.02 | 55 | 363.5 |
| 20260504211204 | 52 | 349 | 6.1 | 24.3 | 0.02 | 0.01 | 0.02 | 49 | 363.7 |
| 20260504211009 | 53 | 34 | 10.4 | 24.3 | 0.02 | 0.01 | 0.02 | 46 | 363.5 |
| 20260504210451 | 54 | 0 | 7.8 | 13.0 | 0.01 | 0.01 | 0.01 | 44 | 363.2 |
| 20260504205951 | 53 | 34 | 1.7 | 11.3 | 0.01 | 0.00 | 0.01 | 42 | 363.0 |
| 20260504205204 | 53 | 40 | 5.2 | 19.1 | 0.01 | 0.00 | 0.01 | 44 | 363.0 |
| 20260504204703 | 55 | 60 | 1.7 | 19.1 | 0.01 | 0.00 | 0.01 | 39 | 362.8 |
| 20260504204202 | 57 | 44 | 9.6 | 19.1 | 0.00 | 0.00 | 0.00 | 39 | 362.5 |
| 20260504203704 | 58 | 17 | 13.0 | 20.0 | 0.00 | 0.00 | 0.00 | 32 | 362.1 |
| 20260504203202 | 58 | 46 | 10.4 | 20.0 | 0.00 | 0.00 | 0.00 | 33 | 361.6 |
| 20260504202703 | 59 | 33 | 12.2 | 19.1 | 0.00 | 0.00 | 0.00 | 31 | 361.3 |
| 20260504202202 | 59 | 17 | 11.3 | 22.6 | 0.00 | 0.00 | 0.00 | 30 | 361.0 |
| 20260504201948 | 60 | 357 | 13.9 | 22.6 | 0.00 | 0.00 | 0.00 | 29 | 361.3 |
| 20260504201205 | 61 | 4 | 12.2 | 20.0 | 0.00 | 0.00 | 0.00 | 27 | 361.5 |
| 20260504200702 | 63 | 64 | 7.8 | 13.9 | 0.00 | 0.00 | 0.00 | 23 | 361.5 |
| 20260504200203 | 64 | 74 | 9.6 | 16.5 | 0.00 | 0.00 | 0.00 | 23 | 361.4 |
| 20260504195704 | 64 | 23 | 9.6 | 16.5 | 0.00 | 0.00 | 0.00 | 22 | 361.5 |
| 20260504195203 | 64 | 349 | 12.2 | 17.4 | 0.00 | 0.00 | 0.00 | 25 | 361.3 |
| 20260504194703 | 64 | 31 | 9.6 | 17.4 | 0.00 | 0.00 | 0.00 | 24 | 361.3 |
| 20260504194203 | 64 | 347 | 10.4 | 18.2 | 0.00 | 0.00 | 0.00 | 28 | 361.4 |
| 20260504193952 | 65 | 353 | 9.6 | 18.2 | 0.00 | 0.00 | 0.00 | 26 | 361.3 |
| 20260504193451 | 65 | 343 | 11.3 | 17.4 | 0.00 | 0.00 | 0.00 | 28 | 361.3 |
| 20260504192949 | 66 | 339 | 13.0 | 17.4 | 0.00 | 0.00 | 0.00 | 26 | 361.2 |
| 20260504192453 | 66 | 315 | 9.6 | 15.6 | 0.00 | 0.00 | 0.00 | 27 | 361.2 |
| 20260504191704 | 65 | 357 | 9.6 | 14.8 | 0.00 | 0.00 | 0.00 | 27 | 361.0 |
| 20260504191449 | 65 | 331 | 11.3 | 15.6 | 0.00 | 0.00 | 0.00 | 27 | 361.2 |
| 20260504190703 | 65 | 356 | 8.7 | 15.6 | 0.00 | 0.00 | 0.00 | 28 | 361.2 |
| 20260504190203 | 65 | 6 | 7.8 | 15.6 | 0.00 | 0.00 | 0.00 | 26 | 361.2 |
| 20260504185952 | 65 | 326 | 6.1 | 14.8 | 0.00 | 0.00 | 0.00 | 24 | 361.2 |
| 20260504185204 | 65 | 328 | 9.6 | 14.8 | 0.00 | 0.00 | 0.00 | 25 | 361.2 |
| 20260504184942 | 65 | 329 | 8.7 | 14.8 | 0.00 | 0.00 | 0.00 | 25 | 361.3 |
| 20260504184441 | 65 | 323 | 7.0 | 14.8 | 0.00 | 0.00 | 0.00 | 25 | 361.3 |
| 20260504183943 | 65 | 322 | 8.7 | 14.8 | 0.00 | 0.00 | 0.00 | 25 | 361.5 |
| 20260504183431 | 65 | 318 | 6.1 | 14.8 | 0.00 | 0.00 | 0.00 | 26 | 361.6 |
| 20260504182643 | 65 | 326 | 8.7 | 14.8 | 0.00 | 0.00 | 0.00 | 25 | 361.6 |
| 20260504182139 | 65 | 312 | 9.6 | 14.8 | 0.00 | 0.00 | 0.00 | 26 | 361.7 |
| 20260504181639 | 64 | 329 | 7.8 | 14.8 | 0.00 | 0.00 | 0.00 | 25 | 361.8 |
| 20260504181216 | 64 | 345 | 8.7 | 13.9 | 0.00 | 0.00 | 0.00 | 27 | 362.1 |
| 20260504181206 | 64 | 349 | 9.6 | 14.8 | 0.00 | 0.00 | 0.00 | 26 | 362.0 |
| 20260504180132 | 63 | 332 | 4.3 | 13.9 | 0.00 | 0.00 | 0.00 | 27 | 362.0 |
| 20260504175630 | 63 | 331 | 5.2 | 10.4 | 0.00 | 0.00 | 0.00 | 29 | 362.2 |
| 20260504175135 | 63 | 315 | 4.3 | 12.2 | 0.00 | 0.00 | 0.00 | 27 | 362.3 |
| 20260504174633 | 62 | 288 | 5.2 | 12.2 | 0.00 | 0.00 | 0.00 | 30 | 362.4 |
| 20260504174134 | 62 | 287 | 4.3 | 10.4 | 0.00 | 0.00 | 0.00 | 29 | 362.4 |
| 20260504173633 | 62 | 266 | 6.1 | 10.4 | 0.00 | 0.00 | 0.00 | 29 | 362.5 |
| 20260504173133 | 61 | 299 | 2.6 | 10.4 | 0.00 | 0.00 | 0.00 | 29 | 362.5 |
| 20260504172633 | 61 | 247 | 3.5 | 10.4 | 0.00 | 0.00 | 0.00 | 30 | 362.7 |
| 20260504172421 | 61 | 308 | 2.6 | 4.3 | 0.00 | 0.00 | 0.00 | 30 | 362.8 |
| 20260504171632 | 0 | 0.0 | 0.0 | 0.00 | 0.00 | 0.00 | 362.7 | ||
| 20260504171129 | 60 | 252 | 5.2 | 7.8 | 0.00 | 0.00 | 0.00 | 31 | 362.7 |
| 20260504170622 | 60 | 252 | 5.2 | 7.8 | 0.00 | 0.00 | 0.00 | 31 | 362.7 |
| 20260504170122 | 60 | 256 | 4.3 | 7.8 | 0.00 | 0.00 | 0.00 | 31 | 362.8 |
| 20260504160112 | 58 | 285 | 6.1 | 9.6 | 0.00 | 0.00 | 0.00 | 31 | 362.7 |
| 20260504151035 | 52 | 235 | 0.0 | 0.0 | 0.00 | 0.00 | 0.00 | 41 | 362.9 |
| 20260504150529 | 51 | 191 | 0.0 | 0.0 | 0.00 | 0.00 | 0.00 | 44 | 362.9 |
| 20260504150302 | 50 | 191 | 0.0 | 0.0 | 0.00 | 0.00 | 0.00 | 44 | 362.9 |
| 20260504141019 | 46 | 190 | 0.0 | 0.0 | 0.00 | 0.00 | 0.00 | 47 | 363.1 |
| 20260504140517 | 45 | 190 | 0.0 | 0.0 | 0.00 | 0.00 | 0.00 | 48 | 363.1 |
| 20260504130818 | 36 | 213 | 0.9 | 1.7 | 0.00 | 0.00 | 0.00 | 57 | 363.1 |
| 20260504110505 | 33 | 49 | 0.0 | 0.0 | 0.00 | 0.00 | 0.00 | 58 | 363.2 |
| 20260504110301 | 33 | 49 | 0.0 | 0.0 | 0.00 | 0.00 | 0.00 | 58 | 363.2 |
| 20260504081927 | 39 | 49 | 0.0 | 1.7 | 0.00 | 0.00 | 0.00 | 49 | 364.0 |
| 20260504081427 | 39 | 49 | 0.0 | 1.7 | 0.00 | 0.00 | 0.00 | 49 | 364.0 |
| 20260504080927 | 40 | 34 | 0.9 | 2.6 | 0.00 | 0.00 | 0.00 | 48 | 364.0 |
| 20260504080422 | 40 | 34 | 0.0 | 2.6 | 0.00 | 0.00 | 0.00 | 48 | 364.2 |
| 20260504070409 | 43 | 26 | 0.0 | 0.9 | 0.00 | 0.00 | 0.00 | 45 | 364.7 |
| 20260504050649 | 49 | 41 | 2.6 | 7.8 | 0.00 | 0.00 | 0.00 | 36 | 365.0 |
| 20260504045907 | 50 | 339 | 3.5 | 7.8 | 0.00 | 0.00 | 0.00 | 35 | 364.9 |